createdAt,value
2023-05-10T00:01:02.792Z,2.83
2023-05-10T00:03:07.173Z,3.20
2023-05-10T00:05:10.419Z,2.77
2023-05-10T00:07:13.317Z,3.80
2023-05-10T00:09:16.457Z,2.20
2023-05-10T00:11:21.572Z,2.83
2023-05-10T00:13:26.098Z,2.13
2023-05-10T00:15:31.450Z,2.22
2023-05-10T00:17:34.382Z,2.10
2023-05-10T00:19:38.845Z,2.83
2023-05-10T00:21:41.952Z,4.00
2023-05-10T00:23:45.015Z,2.83
2023-05-10T00:25:47.915Z,2.10
2023-05-10T00:27:51.560Z,2.30
2023-05-10T00:29:54.527Z,2.63
2023-05-10T00:31:57.579Z,2.20
2023-05-10T00:34:00.718Z,2.97
2023-05-10T00:36:08.379Z,2.60
2023-05-10T00:38:12.112Z,4.27
2023-05-10T00:40:16.024Z,2.90
2023-05-10T00:42:23.478Z,4.63
2023-05-10T00:44:28.637Z,3.87
2023-05-10T00:46:32.736Z,6.90
2023-05-10T00:48:35.908Z,3.40
2023-05-10T00:50:39.305Z,3.53
2023-05-10T00:52:45.180Z,8.07
2023-05-10T00:54:48.670Z,4.60
2023-05-10T00:56:51.692Z,4.87
2023-05-10T00:58:54.700Z,4.90
2023-05-10T01:01:00.282Z,5.40
2023-05-10T01:03:03.291Z,4.97
2023-05-10T01:05:07.193Z,4.80
2023-05-10T01:07:10.094Z,4.93
2023-05-10T01:09:15.066Z,5.10
2023-05-10T01:11:18.101Z,5.20
2023-05-10T01:13:29.214Z,7.82
2023-05-10T01:15:32.885Z,5.30
2023-05-10T01:17:36.444Z,7.67
2023-05-10T01:19:39.461Z,5.22
2023-05-10T01:21:48.355Z,5.95
2023-05-10T01:24:17.755Z,7.72
2023-05-10T01:26:55.039Z,6.35
2023-05-10T01:29:13.025Z,6.80
2023-05-10T01:31:25.334Z,6.53
2023-05-10T01:33:32.719Z,6.00
2023-05-10T01:35:40.201Z,7.73
2023-05-10T01:37:44.977Z,7.20
2023-05-10T01:39:50.245Z,9.40
2023-05-10T01:41:57.080Z,8.38
2023-05-10T01:44:06.600Z,11.13
2023-05-10T01:46:14.905Z,10.07
2023-05-10T01:48:18.832Z,9.48
2023-05-10T01:50:28.344Z,7.50
2023-05-10T01:52:35.150Z,9.32
2023-05-10T01:54:41.553Z,9.40
2023-05-10T01:56:46.188Z,9.33
2023-05-10T01:58:50.885Z,9.73
2023-05-10T02:00:54.787Z,11.80
2023-05-10T02:02:57.949Z,17.48
2023-05-10T02:05:01.534Z,11.60
2023-05-10T02:07:06.312Z,12.50
2023-05-10T02:09:10.108Z,12.30
2023-05-10T02:11:16.975Z,9.90
2023-05-10T02:13:20.507Z,13.65
2023-05-10T02:15:25.779Z,12.70
2023-05-10T02:17:29.711Z,10.45
2023-05-10T02:19:33.619Z,8.93
2023-05-10T02:21:37.446Z,8.87
2023-05-10T02:23:41.928Z,8.57
2023-05-10T02:25:45.732Z,9.95
2023-05-10T02:27:49.348Z,8.90
2023-05-10T02:29:52.906Z,9.68
2023-05-10T02:31:56.897Z,9.20
2023-05-10T02:34:01.166Z,6.85
2023-05-10T02:36:04.930Z,10.90
2023-05-10T02:38:09.186Z,9.00
2023-05-10T02:40:14.730Z,7.68
2023-05-10T02:42:19.774Z,7.28
2023-05-10T02:44:24.583Z,7.13
2023-05-10T02:46:27.715Z,5.45
2023-05-10T02:48:33.327Z,6.65
2023-05-10T02:50:37.652Z,5.53
2023-05-10T02:52:42.872Z,5.10
2023-05-10T02:54:48.087Z,5.55
2023-05-10T02:56:54.851Z,5.95
2023-05-10T02:58:57.906Z,5.53
2023-05-10T03:01:02.065Z,5.30
2023-05-10T03:03:05.467Z,5.87
2023-05-10T03:05:09.316Z,6.10
2023-05-10T03:07:12.835Z,6.27
2023-05-10T03:09:17.297Z,5.00
2023-05-10T03:11:31.521Z,5.47
2023-05-10T03:13:44.870Z,5.07
2023-05-10T03:15:57.894Z,5.27
2023-05-10T03:18:05.314Z,4.97
2023-05-10T03:20:12.646Z,3.95
2023-05-10T03:22:22.262Z,5.93
2023-05-10T03:24:29.913Z,3.55
2023-05-10T03:26:35.323Z,3.50
2023-05-10T03:28:47.947Z,3.77
2023-05-10T03:30:51.773Z,3.17
2023-05-10T03:32:55.210Z,2.90
2023-05-10T03:34:58.174Z,4.90
2023-05-10T03:37:02.777Z,4.70
2023-05-10T03:39:07.943Z,3.47
2023-05-10T03:41:11.031Z,6.20
2023-05-10T03:43:14.201Z,3.70
2023-05-10T03:45:18.779Z,5.88
2023-05-10T03:47:22.021Z,7.10
2023-05-10T03:49:25.073Z,4.40
2023-05-10T03:51:29.061Z,3.23
2023-05-10T03:53:32.298Z,4.93
2023-05-10T03:55:37.348Z,3.97
2023-05-10T03:57:40.324Z,6.77
2023-05-10T03:59:44.030Z,9.07
2023-05-10T04:01:48.638Z,5.10
2023-05-10T04:03:51.875Z,6.90
2023-05-10T04:06:01.575Z,6.23
2023-05-10T04:08:04.875Z,8.40
2023-05-10T04:10:08.736Z,8.23
2023-05-10T04:12:11.981Z,5.35
2023-05-10T04:14:14.887Z,7.13
2023-05-10T04:16:17.903Z,7.80
2023-05-10T04:18:22.153Z,13.70
2023-05-10T04:20:25.035Z,6.60
2023-05-10T04:22:28.746Z,14.03
2023-05-10T04:24:31.957Z,10.80
2023-05-10T04:26:34.836Z,13.90
2023-05-10T04:28:37.891Z,12.77
2023-05-10T04:30:41.420Z,14.57
2023-05-10T04:32:44.464Z,22.20
2023-05-10T04:34:48.911Z,20.53
2023-05-10T04:36:51.875Z,20.63
2023-05-10T04:38:54.741Z,25.53
2023-05-10T04:41:06.178Z,21.67
2023-05-10T04:43:09.423Z,20.90
2023-05-10T04:45:13.055Z,22.63
2023-05-10T04:47:17.247Z,20.53
2023-05-10T04:49:20.319Z,24.13
2023-05-10T04:51:24.606Z,25.30
2023-05-10T04:53:27.754Z,26.57
2023-05-10T04:55:30.736Z,21.90
2023-05-10T04:57:33.642Z,20.47
2023-05-10T04:59:38.300Z,24.50
2023-05-10T05:01:41.702Z,19.20
2023-05-10T05:03:44.903Z,20.80
2023-05-10T05:05:48.137Z,19.40
2023-05-10T05:07:55.176Z,27.33
2023-05-10T05:09:58.235Z,21.60
2023-05-10T05:12:01.570Z,22.90
2023-05-10T05:14:04.470Z,24.17
2023-05-10T05:16:08.025Z,27.30
2023-05-10T05:18:11.065Z,25.33
2023-05-10T05:20:14.769Z,22.47
2023-05-10T05:22:19.569Z,24.83
2023-05-10T05:24:24.145Z,26.17
2023-05-10T05:26:27.459Z,26.87
2023-05-10T05:28:33.894Z,25.37
2023-05-10T05:30:36.823Z,31.03
2023-05-10T05:32:39.766Z,25.17
2023-05-10T05:34:42.745Z,31.77
2023-05-10T05:36:45.654Z,34.00
2023-05-10T05:38:48.722Z,33.10
2023-05-10T05:40:53.106Z,37.20
2023-05-10T05:42:56.423Z,37.67
2023-05-10T05:44:59.379Z,35.10
2023-05-10T05:47:02.736Z,33.40
2023-05-10T05:49:06.436Z,33.77
2023-05-10T05:51:09.335Z,33.60
2023-05-10T05:53:12.274Z,45.33
2023-05-10T05:55:15.611Z,40.57
2023-05-10T05:57:20.030Z,35.90
2023-05-10T05:59:22.974Z,43.27
2023-05-10T06:01:25.819Z,45.57
2023-05-10T06:03:28.926Z,38.30
2023-05-10T06:05:31.916Z,48.00
2023-05-10T06:07:34.807Z,43.40
2023-05-10T06:09:38.088Z,43.25
2023-05-10T06:11:40.995Z,44.13
2023-05-10T06:13:45.590Z,44.73
2023-05-10T06:15:48.759Z,49.22
2023-05-10T06:17:52.020Z,42.95
2023-05-10T06:19:55.295Z,45.55
2023-05-10T06:21:58.278Z,46.38
2023-05-10T06:24:01.155Z,43.75
2023-05-10T06:26:04.181Z,48.08
2023-05-10T06:28:07.092Z,46.42
2023-05-10T06:30:14.221Z,51.47
2023-05-10T06:32:17.232Z,45.17
2023-05-10T06:34:20.269Z,46.65
2023-05-10T06:36:24.403Z,40.95
2023-05-10T06:38:27.390Z,39.15
2023-05-10T06:40:30.512Z,40.42
2023-05-10T06:42:33.523Z,41.97
2023-05-10T06:44:36.745Z,48.65
2023-05-10T06:46:41.106Z,45.13
2023-05-10T06:48:44.291Z,41.45
2023-05-10T06:50:47.306Z,44.63
2023-05-10T06:52:52.397Z,46.83
2023-05-10T06:54:56.000Z,41.42
2023-05-10T06:56:58.848Z,53.05
2023-05-10T06:59:01.767Z,46.20
2023-05-10T07:01:06.273Z,52.35
2023-05-10T07:03:10.877Z,51.42
2023-05-10T07:05:14.005Z,54.88
2023-05-10T07:07:17.376Z,51.13
2023-05-10T07:09:20.516Z,46.17
2023-05-10T07:11:23.583Z,50.92
2023-05-10T07:13:26.848Z,50.50
2023-05-10T07:15:30.080Z,47.00
2023-05-10T07:17:34.383Z,48.88
2023-05-10T07:19:38.921Z,45.13
2023-05-10T07:21:44.118Z,42.17
2023-05-10T07:23:47.318Z,51.72
2023-05-10T07:25:50.875Z,52.17
2023-05-10T07:27:53.727Z,39.95
2023-05-10T07:29:57.569Z,39.92
2023-05-10T07:32:00.582Z,43.47
2023-05-10T07:34:03.567Z,36.67
2023-05-10T07:36:08.293Z,39.65
2023-05-10T07:38:12.029Z,37.78
2023-05-10T07:40:15.081Z,36.40
2023-05-10T07:42:18.021Z,36.08
2023-05-10T07:44:21.379Z,38.13
2023-05-10T07:46:24.556Z,35.47
2023-05-10T07:48:27.952Z,32.95
2023-05-10T07:50:31.467Z,42.45
2023-05-10T07:52:36.046Z,29.02
2023-05-10T07:54:39.236Z,28.10
2023-05-10T07:56:46.521Z,25.75
2023-05-10T07:58:49.572Z,29.65
2023-05-10T08:00:52.762Z,35.85
2023-05-10T08:02:56.091Z,25.15
2023-05-10T08:04:59.358Z,24.85
2023-05-10T08:07:02.512Z,22.98
2023-05-10T08:09:07.297Z,26.85
2023-05-10T08:11:10.284Z,22.85
2023-05-10T08:13:13.399Z,29.17
2023-05-10T08:15:17.238Z,24.48
2023-05-10T08:17:22.066Z,28.50
2023-05-10T08:19:26.530Z,23.25
2023-05-10T08:21:29.801Z,29.83
2023-05-10T08:23:34.234Z,24.83
2023-05-10T08:25:38.601Z,25.27
2023-05-10T08:27:41.767Z,25.50
2023-05-10T08:29:50.232Z,24.65
2023-05-10T08:31:53.901Z,24.38
2023-05-10T08:33:57.164Z,29.85
2023-05-10T08:36:00.338Z,28.05
2023-05-10T08:38:03.499Z,25.45
2023-05-10T08:40:07.655Z,24.80
2023-05-10T08:42:13.554Z,28.48
2023-05-10T08:44:19.181Z,29.00
2023-05-10T08:46:23.702Z,25.55
2023-05-10T08:48:27.181Z,24.90
2023-05-10T08:50:30.435Z,30.63
2023-05-10T08:52:35.017Z,30.55
2023-05-10T08:54:40.353Z,29.02
2023-05-10T08:56:43.392Z,34.80
2023-05-10T08:58:48.449Z,31.80
2023-05-10T09:00:53.355Z,25.02
2023-05-10T09:02:56.793Z,16.63
2023-05-10T09:05:01.510Z,16.83
2023-05-10T09:07:04.657Z,21.65
2023-05-10T09:09:07.961Z,16.33
2023-05-10T09:11:11.316Z,14.70
2023-05-10T09:13:16.112Z,14.88
2023-05-10T09:15:20.994Z,16.55
2023-05-10T09:17:26.592Z,15.48
2023-05-10T09:19:32.717Z,18.52
2023-05-10T09:21:37.737Z,17.35
2023-05-10T09:23:40.695Z,16.80
2023-05-10T09:25:44.160Z,17.10
2023-05-10T09:27:48.597Z,27.20
2023-05-10T09:29:55.523Z,19.88
2023-05-10T09:31:59.998Z,20.67
2023-05-10T09:34:03.109Z,23.35
2023-05-10T09:36:09.448Z,27.05
2023-05-10T09:38:13.793Z,19.85
2023-05-10T09:40:19.714Z,23.75
2023-05-10T09:42:22.825Z,22.63
2023-05-10T09:44:27.673Z,21.95
2023-05-10T09:46:30.901Z,21.67
2023-05-10T09:48:35.371Z,22.88
2023-05-10T09:50:38.707Z,22.33
2023-05-10T09:52:49.866Z,26.73
2023-05-10T09:54:55.476Z,20.50
2023-05-10T09:56:58.566Z,26.92
2023-05-10T09:59:04.742Z,20.02
2023-05-10T10:01:13.303Z,24.75
2023-05-10T10:03:17.748Z,18.50
2023-05-10T10:05:22.300Z,18.00
2023-05-10T10:07:27.916Z,17.23
2023-05-10T10:09:31.080Z,17.80
2023-05-10T10:11:34.319Z,17.42
2023-05-10T10:13:37.344Z,14.93
2023-05-10T10:15:40.707Z,14.52
2023-05-10T10:17:45.621Z,11.70
2023-05-10T10:19:50.689Z,15.57
2023-05-10T10:21:55.098Z,11.73
2023-05-10T10:23:58.208Z,11.88
2023-05-10T10:26:02.042Z,10.75
2023-05-10T10:28:19.700Z,9.15
2023-05-10T10:30:28.350Z,11.27
2023-05-10T10:32:39.846Z,8.80
2023-05-10T10:34:43.202Z,14.73
2023-05-10T10:36:48.568Z,12.00
2023-05-10T10:39:03.163Z,10.43
2023-05-10T10:41:13.856Z,10.57
2023-05-10T10:43:27.638Z,12.18
2023-05-10T10:45:31.994Z,10.85
2023-05-10T10:47:34.941Z,14.50
2023-05-10T10:49:46.310Z,18.77
2023-05-10T10:52:16.852Z,9.77
2023-05-10T10:54:30.707Z,8.93
2023-05-10T10:56:35.769Z,7.90
2023-05-10T10:58:40.983Z,10.82
2023-05-10T11:00:46.422Z,11.75
2023-05-10T11:02:52.920Z,14.02
2023-05-10T11:04:56.184Z,13.88
2023-05-10T11:07:20.684Z,12.68
2023-05-10T11:09:26.914Z,10.38
2023-05-10T11:11:31.587Z,17.88
2023-05-10T11:13:36.522Z,17.52
2023-05-10T11:15:41.695Z,14.25
2023-05-10T11:17:44.868Z,21.02
2023-05-10T11:20:08.592Z,22.98
2023-05-10T11:22:15.266Z,24.20
2023-05-10T11:24:20.065Z,22.80
2023-05-10T11:26:26.514Z,23.00
2023-05-10T11:28:29.872Z,21.33
2023-05-10T11:30:33.605Z,19.58
2023-05-10T11:32:38.976Z,24.98
2023-05-10T11:34:42.246Z,17.38
2023-05-10T11:36:45.411Z,16.50
2023-05-10T11:38:48.652Z,14.20
2023-05-10T11:40:54.406Z,14.77
2023-05-10T11:42:59.575Z,12.40
2023-05-10T11:45:03.195Z,18.25
2023-05-10T11:47:07.040Z,17.40
2023-05-10T11:49:10.174Z,16.35
2023-05-10T11:51:14.203Z,23.40
2023-05-10T11:53:17.208Z,14.70
2023-05-10T11:55:20.759Z,12.68
2023-05-10T11:57:29.150Z,13.50
2023-05-10T11:59:34.776Z,14.98
2023-05-10T12:01:38.793Z,15.10
2023-05-10T12:03:42.843Z,16.60
2023-05-10T12:05:45.912Z,13.45
2023-05-10T12:07:49.308Z,17.83
2023-05-10T12:10:13.112Z,15.30
2023-05-10T12:12:18.531Z,14.82
2023-05-10T12:14:22.621Z,17.90
2023-05-10T12:16:29.125Z,19.48
2023-05-10T12:18:34.420Z,27.73
2023-05-10T12:20:37.648Z,19.33
2023-05-10T12:22:41.499Z,15.02
2023-05-10T12:24:44.663Z,20.88
2023-05-10T12:26:49.332Z,17.20
2023-05-10T12:28:52.992Z,16.80
2023-05-10T12:30:56.794Z,14.13
2023-05-10T12:33:11.181Z,14.10
2023-05-10T12:35:15.343Z,16.80
2023-05-10T12:37:18.315Z,20.80
2023-05-10T12:39:21.265Z,16.85
2023-05-10T12:41:24.586Z,15.82
2023-05-10T12:43:27.890Z,17.00
2023-05-10T12:45:31.665Z,13.55
2023-05-10T12:47:35.070Z,21.42
2023-05-10T12:49:40.915Z,15.75
2023-05-10T12:51:45.650Z,13.32
2023-05-10T12:53:49.718Z,18.13
2023-05-10T12:55:53.253Z,13.18
2023-05-10T12:57:57.375Z,14.13
2023-05-10T13:00:00.818Z,18.35
2023-05-10T13:02:03.828Z,17.35
2023-05-10T13:04:09.565Z,9.65
2023-05-10T13:06:15.836Z,12.75
2023-05-10T13:08:18.981Z,17.65
2023-05-10T13:10:23.540Z,14.15
2023-05-10T13:12:26.624Z,13.80
2023-05-10T13:14:30.191Z,11.30
2023-05-10T13:16:33.754Z,14.57
2023-05-10T13:18:36.895Z,11.32
2023-05-10T13:20:40.701Z,11.25
2023-05-10T13:22:45.320Z,12.73
2023-05-10T13:24:48.657Z,9.75
2023-05-10T13:26:51.925Z,8.13
2023-05-10T13:28:56.514Z,7.55
2023-05-10T13:31:02.094Z,9.70
2023-05-10T13:33:06.308Z,7.20
2023-05-10T13:35:12.035Z,17.77
2023-05-10T13:37:16.035Z,8.93
2023-05-10T13:39:20.438Z,7.80
2023-05-10T13:41:23.741Z,11.23
2023-05-10T13:43:27.475Z,14.15
2023-05-10T13:45:31.624Z,11.85
2023-05-10T13:47:34.540Z,10.55
2023-05-10T13:49:37.497Z,12.73
2023-05-10T13:51:40.480Z,13.73
2023-05-10T13:53:43.849Z,12.15
2023-05-10T13:55:48.401Z,15.13
2023-05-10T13:57:51.419Z,9.60
2023-05-10T13:59:55.919Z,9.82
2023-05-10T14:02:00.807Z,9.70
2023-05-10T14:04:04.511Z,9.52
2023-05-10T14:06:08.406Z,9.18
2023-05-10T14:08:11.909Z,10.98
2023-05-10T14:10:14.976Z,9.15
2023-05-10T14:12:19.751Z,9.32
2023-05-10T14:14:22.802Z,10.70
2023-05-10T14:16:25.914Z,11.18
2023-05-10T14:18:29.307Z,9.18
2023-05-10T14:20:34.948Z,10.60
2023-05-10T14:22:40.454Z,10.15
2023-05-10T14:24:47.717Z,9.38
2023-05-10T14:26:54.712Z,8.45
2023-05-10T14:29:00.030Z,8.55
2023-05-10T14:31:03.415Z,9.38
2023-05-10T14:33:08.797Z,8.73
2023-05-10T14:35:13.396Z,9.18
2023-05-10T14:37:16.710Z,8.18
2023-05-10T14:39:20.893Z,6.28
2023-05-10T14:41:25.757Z,11.48
2023-05-10T14:43:29.240Z,7.63
2023-05-10T14:45:33.913Z,9.68
2023-05-10T14:47:38.358Z,6.72
2023-05-10T14:49:42.179Z,8.85
2023-05-10T14:51:46.176Z,6.53
2023-05-10T14:53:49.580Z,10.50
2023-05-10T15:00:06.322Z,5.90
2023-05-10T15:02:11.850Z,5.47
2023-05-10T15:04:17.350Z,6.47
2023-05-10T15:06:25.988Z,8.20
2023-05-10T15:08:29.178Z,5.85
2023-05-10T15:10:34.463Z,4.47
2023-05-10T15:12:37.668Z,4.78
2023-05-10T15:14:40.702Z,9.27
2023-05-10T15:16:43.752Z,7.07
2023-05-10T15:18:48.097Z,6.18
2023-05-10T15:20:51.591Z,3.75
2023-05-10T15:22:54.912Z,5.55
2023-05-10T15:24:58.114Z,2.75
2023-05-10T15:27:01.021Z,8.13
2023-05-10T15:29:04.066Z,3.25
2023-05-10T15:31:07.192Z,4.32
2023-05-10T15:33:11.898Z,5.93
2023-05-10T15:35:16.308Z,5.80
2023-05-10T15:37:19.574Z,5.78
2023-05-10T15:39:22.519Z,8.43
2023-05-10T15:41:25.695Z,3.17
2023-05-10T15:43:28.631Z,9.52
2023-05-10T15:45:31.616Z,6.03
2023-05-10T15:47:35.237Z,4.78
2023-05-10T15:49:38.455Z,4.55
2023-05-10T15:51:43.267Z,3.42
2023-05-10T15:53:56.832Z,5.05
2023-05-10T15:56:09.321Z,2.92
2023-05-10T15:58:12.794Z,5.18
2023-05-10T16:00:16.933Z,5.20
2023-05-10T16:02:19.817Z,6.53
2023-05-10T16:04:22.718Z,5.85
2023-05-10T16:06:25.574Z,9.15
2023-05-10T16:08:30.748Z,6.63
2023-05-10T16:10:34.370Z,7.38
2023-05-10T16:12:37.315Z,4.90
2023-05-10T16:14:40.208Z,4.70
2023-05-10T16:16:43.379Z,4.35
2023-05-10T16:18:46.476Z,7.88
2023-05-10T16:20:49.542Z,7.20
2023-05-10T16:22:52.542Z,6.60
2023-05-10T16:24:58.015Z,7.18
2023-05-10T16:27:01.065Z,6.13
2023-05-10T16:29:04.149Z,4.78
2023-05-10T16:31:07.139Z,5.88
2023-05-10T16:33:10.167Z,3.78
2023-05-10T16:35:13.241Z,7.70
2023-05-10T16:37:16.341Z,4.60
2023-05-10T16:39:19.307Z,6.03
2023-05-10T16:41:24.656Z,5.03
2023-05-10T16:43:28.716Z,3.90
2023-05-10T16:49:43.502Z,8.35
2023-05-10T16:51:46.724Z,10.52
2023-05-10T16:53:49.853Z,4.55
2023-05-10T16:55:52.836Z,5.07
2023-05-10T16:58:00.924Z,9.23
2023-05-10T17:00:04.496Z,9.30
2023-05-10T17:02:07.962Z,9.38
2023-05-10T17:04:11.044Z,24.42
2023-05-10T17:06:14.353Z,7.28
2023-05-10T17:08:17.507Z,11.65
2023-05-10T17:10:21.055Z,10.02
2023-05-10T17:12:24.708Z,6.72
2023-05-10T17:14:29.058Z,5.47
2023-05-10T17:16:32.105Z,7.20
2023-05-10T17:18:35.463Z,8.82
2023-05-10T17:20:39.090Z,6.78
2023-05-10T17:22:42.758Z,4.55
2023-05-10T17:24:46.698Z,5.15
2023-05-10T17:26:49.666Z,8.60
2023-05-10T17:28:54.485Z,9.23
2023-05-10T17:30:59.689Z,11.45
2023-05-10T17:33:02.771Z,9.93
2023-05-10T17:35:06.855Z,11.80
2023-05-10T17:37:10.232Z,9.73
2023-05-10T17:39:15.106Z,13.52
2023-05-10T17:41:21.802Z,17.35
2023-05-10T17:43:26.090Z,9.27
2023-05-10T17:45:29.056Z,11.25
2023-05-10T17:47:36.377Z,9.88
2023-05-10T17:49:40.853Z,13.52
2023-05-10T17:51:48.079Z,20.10
2023-05-10T17:53:51.362Z,10.10
2023-05-10T17:55:58.067Z,10.70
2023-05-10T17:58:01.802Z,16.20
2023-05-10T18:00:08.720Z,9.63
2023-05-10T18:02:11.607Z,12.15
2023-05-10T18:04:16.229Z,12.25
2023-05-10T18:06:19.661Z,11.45
2023-05-10T18:08:26.991Z,11.23
2023-05-10T18:10:30.527Z,16.35
2023-05-10T18:12:33.916Z,8.43
2023-05-10T18:14:41.194Z,12.25
2023-05-10T18:16:45.063Z,10.25
2023-05-10T18:18:48.166Z,9.13
2023-05-10T18:20:56.693Z,7.53
2023-05-10T18:23:00.626Z,8.70
2023-05-10T18:25:03.828Z,12.63
2023-05-10T18:27:09.844Z,12.52
2023-05-10T18:29:13.057Z,21.15
2023-05-10T18:31:16.532Z,16.27
2023-05-10T18:33:19.913Z,11.52
2023-05-10T18:35:25.004Z,12.55
2023-05-10T18:37:30.116Z,13.60
2023-05-10T18:39:33.376Z,13.10
2023-05-10T18:41:36.402Z,10.75
2023-05-10T18:43:39.363Z,12.02
2023-05-10T18:45:42.260Z,12.52
2023-05-10T18:47:45.249Z,11.07
2023-05-10T18:49:48.777Z,12.48
2023-05-10T18:51:52.782Z,12.73
2023-05-10T18:53:57.054Z,13.73
2023-05-10T18:56:00.512Z,16.75
2023-05-10T18:58:03.565Z,13.93
2023-05-10T19:00:08.606Z,30.60
2023-05-10T19:02:11.753Z,15.82
2023-05-10T19:04:14.838Z,14.43
2023-05-10T19:06:19.434Z,18.27
2023-05-10T19:08:22.384Z,18.75
2023-05-10T19:10:27.579Z,19.17
2023-05-10T19:12:31.583Z,22.00
2023-05-10T19:14:36.231Z,16.52
2023-05-10T19:16:40.523Z,18.10
2023-05-10T19:18:44.151Z,15.88
2023-05-10T19:20:48.021Z,16.60
2023-05-10T19:23:08.348Z,19.50
2023-05-10T19:25:13.130Z,19.23
2023-05-10T19:27:17.597Z,20.70
2023-05-10T19:29:20.613Z,18.70
2023-05-10T19:31:23.539Z,18.52
2023-05-10T19:33:26.679Z,20.75
2023-05-10T19:35:29.736Z,25.52
2023-05-10T19:37:32.878Z,21.13
2023-05-10T19:39:36.028Z,17.02
2023-05-10T19:41:39.018Z,20.67
2023-05-10T19:43:43.738Z,27.35
2023-05-10T19:45:46.792Z,22.15
2023-05-10T19:47:50.149Z,21.73
2023-05-10T19:49:53.213Z,19.73
2023-05-10T19:51:56.401Z,22.55
2023-05-10T19:54:00.518Z,20.63
2023-05-10T19:56:06.667Z,17.10
2023-05-10T19:58:09.852Z,23.38
2023-05-10T20:00:15.950Z,23.50
2023-05-10T20:02:18.929Z,25.38
2023-05-10T20:04:23.215Z,22.25
2023-05-10T20:06:27.434Z,18.27
2023-05-10T20:08:31.040Z,21.23
2023-05-10T20:10:34.961Z,33.88
2023-05-10T20:12:38.058Z,24.50
2023-05-10T20:14:41.004Z,25.23
2023-05-10T20:16:45.717Z,22.08
2023-05-10T20:18:48.762Z,24.85
2023-05-10T20:20:55.073Z,24.98
2023-05-10T20:22:58.006Z,29.92
2023-05-10T20:25:00.971Z,33.08
2023-05-10T20:27:04.653Z,28.55
2023-05-10T20:29:09.734Z,32.85
2023-05-10T20:31:13.751Z,29.33
2023-05-10T20:33:19.157Z,26.25
2023-05-10T20:35:22.178Z,26.63
2023-05-10T20:37:27.497Z,27.02
2023-05-10T20:39:30.471Z,31.80
2023-05-10T20:41:33.397Z,32.90
2023-05-10T20:43:36.555Z,25.73
2023-05-10T20:45:39.564Z,25.35
2023-05-10T20:47:42.847Z,24.13
2023-05-10T20:49:47.394Z,25.67
2023-05-10T20:51:51.670Z,29.75
2023-05-10T20:53:57.151Z,23.95
2023-05-10T20:56:00.212Z,26.70
2023-05-10T20:58:04.984Z,22.35
2023-05-10T21:00:12.146Z,21.50
2023-05-10T21:02:15.291Z,26.90
2023-05-10T21:04:18.310Z,20.30
2023-05-10T21:06:22.922Z,20.13
2023-05-10T21:08:28.060Z,20.13
2023-05-10T21:10:31.593Z,22.08
2023-05-10T21:12:34.807Z,25.00
2023-05-10T21:14:37.805Z,25.88
2023-05-10T21:16:40.824Z,22.25
2023-05-10T21:18:44.060Z,24.58
2023-05-10T21:20:46.996Z,19.92
2023-05-10T21:22:51.826Z,20.70
2023-05-10T21:24:57.271Z,18.08
2023-05-10T21:27:01.799Z,17.17
2023-05-10T21:29:09.566Z,22.33
2023-05-10T21:31:14.944Z,19.08
2023-05-10T21:33:17.932Z,21.13
2023-05-10T21:35:21.840Z,29.35
2023-05-10T21:37:25.198Z,22.25
2023-05-10T21:39:29.568Z,19.73
2023-05-10T21:41:32.590Z,18.88
2023-05-10T21:43:37.894Z,20.23
2023-05-10T21:45:41.314Z,21.90
2023-05-10T21:48:07.127Z,20.42
2023-05-10T21:50:12.130Z,27.20
2023-05-10T21:52:15.528Z,22.27
2023-05-10T21:54:20.526Z,21.42
2023-05-10T21:56:32.191Z,21.88
2023-05-10T21:58:35.667Z,26.05
2023-05-10T22:00:41.484Z,27.33
2023-05-10T22:02:44.502Z,26.65
2023-05-10T22:04:49.093Z,25.00
2023-05-10T22:06:52.113Z,27.35
2023-05-10T22:08:55.050Z,26.70
2023-05-10T22:10:58.093Z,32.95
2023-05-10T22:13:02.325Z,24.50
2023-05-10T22:15:10.233Z,26.73
2023-05-10T22:17:15.100Z,28.05
2023-05-10T22:19:18.402Z,27.23
2023-05-10T22:21:21.434Z,23.25
2023-05-10T22:23:25.153Z,26.65
2023-05-10T22:25:28.528Z,27.70
2023-05-10T22:27:31.439Z,24.60
2023-05-10T22:29:36.252Z,28.80
2023-05-10T22:31:39.333Z,34.05
2023-05-10T22:33:42.381Z,31.17
2023-05-10T22:35:45.378Z,25.95
2023-05-10T22:37:48.403Z,23.63
2023-05-10T22:39:51.753Z,28.30
2023-05-10T22:41:55.239Z,25.27
2023-05-10T22:43:58.277Z,27.50
2023-05-10T22:46:02.634Z,32.70
2023-05-10T22:48:06.427Z,30.55
2023-05-10T22:50:10.359Z,26.83
2023-05-10T22:52:13.576Z,32.22
2023-05-10T22:54:16.686Z,29.85
2023-05-10T22:56:20.131Z,28.25
2023-05-10T22:58:23.188Z,31.15
2023-05-10T23:00:26.476Z,37.33
2023-05-10T23:02:32.128Z,27.48
2023-05-10T23:04:35.197Z,28.10
2023-05-10T23:06:39.495Z,26.10
2023-05-10T23:08:43.267Z,34.85
2023-05-10T23:10:46.340Z,32.15
2023-05-10T23:12:49.309Z,37.63
2023-05-10T23:14:52.282Z,32.63
2023-05-10T23:16:55.186Z,27.42
2023-05-10T23:19:00.031Z,33.70
2023-05-10T23:21:03.314Z,30.05
2023-05-10T23:23:06.882Z,29.45
2023-05-10T23:25:11.111Z,31.55
2023-05-10T23:27:14.510Z,25.77
2023-05-10T23:29:17.833Z,35.55
2023-05-10T23:31:20.807Z,28.55
2023-05-10T23:33:24.277Z,30.35
2023-05-10T23:35:28.849Z,29.90
2023-05-10T23:37:31.840Z,30.30
2023-05-10T23:39:34.806Z,29.15
2023-05-10T23:41:38.192Z,38.55
2023-05-10T23:43:41.099Z,33.22
2023-05-10T23:45:44.051Z,35.17
2023-05-10T23:47:46.925Z,25.80
2023-05-10T23:49:51.245Z,28.93
2023-05-10T23:51:55.928Z,23.35
2023-05-10T23:53:59.086Z,33.92
2023-05-10T23:56:04.444Z,31.67
2023-05-10T23:58:07.406Z,36.03
